sensor_id;sensor_type;location;lat;lon;timestamp;pressure;altitude;pressure_sealevel;temperature;humidity
58967;BME280;44744;51.894;5.080;2022-07-22T00:00:22;102300.23;;;16.42;76.09
58967;BME280;44744;51.894;5.080;2022-07-22T00:01:23;102299.15;;;16.42;76.05
58967;BME280;44744;51.894;5.080;2022-07-22T00:02:23;102295.89;;;16.42;75.92
58967;BME280;44744;51.894;5.080;2022-07-22T00:03:24;102298.02;;;16.43;75.96
58967;BME280;44744;51.894;5.080;2022-07-22T00:04:24;102297.74;;;16.45;75.89
58967;BME280;44744;51.894;5.080;2022-07-22T00:05:24;102301.27;;;16.46;76.03
58967;BME280;44744;51.894;5.080;2022-07-22T00:06:26;102296.92;;;16.47;76.02
58967;BME280;44744;51.894;5.080;2022-07-22T00:07:26;102296.31;;;16.48;75.96
58967;BME280;44744;51.894;5.080;2022-07-22T00:08:26;102298.70;;;16.47;75.87
58967;BME280;44744;51.894;5.080;2022-07-22T00:09:29;102297.79;;;16.47;75.90
58967;BME280;44744;51.894;5.080;2022-07-22T00:10:30;102293.13;;;16.48;75.84
58967;BME280;44744;51.894;5.080;2022-07-22T00:11:33;102294.37;;;16.48;75.93
58967;BME280;44744;51.894;5.080;2022-07-22T00:12:37;102291.44;;;16.49;75.83
58967;BME280;44744;51.894;5.080;2022-07-22T00:13:43;102293.77;;;16.49;75.85
58967;BME280;44744;51.894;5.080;2022-07-22T00:14:43;102292.40;;;16.48;75.78
58967;BME280;44744;51.894;5.080;2022-07-22T00:15:44;102289.73;;;16.47;75.77
58967;BME280;44744;51.894;5.080;2022-07-22T00:16:44;102289.37;;;16.48;75.81
58967;BME280;44744;51.894;5.080;2022-07-22T00:17:44;102287.92;;;16.48;75.82
58967;BME280;44744;51.894;5.080;2022-07-22T00:18:45;102290.69;;;16.49;75.86
58967;BME280;44744;51.894;5.080;2022-07-22T00:19:45;102290.69;;;16.49;75.79
58967;BME280;44744;51.894;5.080;2022-07-22T00:20:45;102288.94;;;16.49;75.77
58967;BME280;44744;51.894;5.080;2022-07-22T00:21:45;102291.08;;;16.49;75.83
58967;BME280;44744;51.894;5.080;2022-07-22T00:22:46;102291.56;;;16.50;75.82
58967;BME280;44744;51.894;5.080;2022-07-22T00:23:46;102294.05;;;16.50;75.73
58967;BME280;44744;51.894;5.080;2022-07-22T00:24:47;102289.77;;;16.50;75.79
58967;BME280;44744;51.894;5.080;2022-07-22T00:25:47;102287.96;;;16.50;75.76
58967;BME280;44744;51.894;5.080;2022-07-22T00:26:47;102290.10;;;16.50;75.75
58967;BME280;44744;51.894;5.080;2022-07-22T00:27:48;102291.54;;;16.50;75.70
58967;BME280;44744;51.894;5.080;2022-07-22T00:28:48;102288.64;;;16.51;75.69
58967;BME280;44744;51.894;5.080;2022-07-22T00:29:48;102288.81;;;16.51;75.64
58967;BME280;44744;51.894;5.080;2022-07-22T00:30:49;102286.14;;;16.51;75.66
58967;BME280;44744;51.894;5.080;2022-07-22T00:31:49;102285.36;;;16.52;75.82
58967;BME280;44744;51.894;5.080;2022-07-22T00:32:49;102285.50;;;16.53;75.68
58967;BME280;44744;51.894;5.080;2022-07-22T00:33:50;102288.10;;;16.54;75.68
58967;BME280;44744;51.894;5.080;2022-07-22T00:34:50;102287.04;;;16.54;75.68
58967;BME280;44744;51.894;5.080;2022-07-22T00:35:50;102286.29;;;16.54;75.63
58967;BME280;44744;51.894;5.080;2022-07-22T00:36:51;102286.14;;;16.54;75.63
58967;BME280;44744;51.894;5.080;2022-07-22T00:37:51;102286.69;;;16.54;75.63
58967;BME280;44744;51.894;5.080;2022-07-22T00:38:51;102286.16;;;16.53;75.64
58967;BME280;44744;51.894;5.080;2022-07-22T00:39:54;102287.54;;;16.54;75.58
58967;BME280;44744;51.894;5.080;2022-07-22T00:40:54;102284.35;;;16.54;75.58
58967;BME280;44744;51.894;5.080;2022-07-22T00:41:56;102279.81;;;16.55;75.55
58967;BME280;44744;51.894;5.080;2022-07-22T00:42:59;102282.13;;;16.55;75.54
58967;BME280;44744;51.894;5.080;2022-07-22T00:44:02;102275.04;;;16.55;75.59
58967;BME280;44744;51.894;5.080;2022-07-22T00:45:04;102275.80;;;16.57;75.67
58967;BME280;44744;51.894;5.080;2022-07-22T00:46:04;102278.45;;;16.58;75.60
58967;BME280;44744;51.894;5.080;2022-07-22T00:47:05;102276.24;;;16.59;75.69
58967;BME280;44744;51.894;5.080;2022-07-22T00:48:06;102278.90;;;16.59;75.62
58967;BME280;44744;51.894;5.080;2022-07-22T00:49:07;102277.02;;;16.60;75.58
58967;BME280;44744;51.894;5.080;2022-07-22T00:50:08;102273.09;;;16.61;75.59
58967;BME280;44744;51.894;5.080;2022-07-22T00:51:08;102272.86;;;16.61;75.52
58967;BME280;44744;51.894;5.080;2022-07-22T00:52:09;102274.52;;;16.61;75.43
58967;BME280;44744;51.894;5.080;2022-07-22T00:53:09;102270.65;;;16.60;75.44
58967;BME280;44744;51.894;5.080;2022-07-22T00:54:10;102269.21;;;16.60;75.45
58967;BME280;44744;51.894;5.080;2022-07-22T00:55:10;102269.86;;;16.61;75.54
58967;BME280;44744;51.894;5.080;2022-07-22T00:56:10;102267.89;;;16.61;75.56
58967;BME280;44744;51.894;5.080;2022-07-22T00:57:11;102267.52;;;16.61;75.37
58967;BME280;44744;51.894;5.080;2022-07-22T00:58:11;102267.11;;;16.62;75.39
58967;BME280;44744;51.894;5.080;2022-07-22T00:59:12;102273.11;;;16.60;75.30
58967;BME280;44744;51.894;5.080;2022-07-22T01:00:16;102274.23;;;16.59;75.33
58967;BME280;44744;51.894;5.080;2022-07-22T01:01:18;102274.58;;;16.60;75.34
58967;BME280;44744;51.894;5.080;2022-07-22T01:02:21;102274.99;;;16.59;75.38
58967;BME280;44744;51.894;5.080;2022-07-22T01:03:21;102277.17;;;16.58;75.34
58967;BME280;44744;51.894;5.080;2022-07-22T01:04:21;102275.25;;;16.58;75.35
58967;BME280;44744;51.894;5.080;2022-07-22T01:05:22;102276.30;;;16.58;75.34
58967;BME280;44744;51.894;5.080;2022-07-22T01:06:22;102275.80;;;16.57;75.28
58967;BME280;44744;51.894;5.080;2022-07-22T01:07:22;102276.00;;;16.57;75.27
58967;BME280;44744;51.894;5.080;2022-07-22T01:08:23;102274.83;;;16.55;75.30
58967;BME280;44744;51.894;5.080;2022-07-22T01:09:23;102273.86;;;16.53;75.28
58967;BME280;44744;51.894;5.080;2022-07-22T01:10:24;102272.19;;;16.51;75.25
58967;BME280;44744;51.894;5.080;2022-07-22T01:11:25;102273.06;;;16.52;75.27
58967;BME280;44744;51.894;5.080;2022-07-22T01:12:26;102275.40;;;16.51;75.32
58967;BME280;44744;51.894;5.080;2022-07-22T01:13:26;102272.79;;;16.51;75.37
58967;BME280;44744;51.894;5.080;2022-07-22T01:14:26;102273.43;;;16.51;75.21
58967;BME280;44744;51.894;5.080;2022-07-22T01:15:27;102274.32;;;16.51;75.33
58967;BME280;44744;51.894;5.080;2022-07-22T01:16:27;102272.30;;;16.52;75.36
58967;BME280;44744;51.894;5.080;2022-07-22T01:17:28;102272.46;;;16.53;75.24
58967;BME280;44744;51.894;5.080;2022-07-22T01:18:28;102272.37;;;16.54;75.37
58967;BME280;44744;51.894;5.080;2022-07-22T01:19:29;102274.10;;;16.55;75.34
58967;BME280;44744;51.894;5.080;2022-07-22T01:20:29;102271.17;;;16.56;75.27
58967;BME280;44744;51.894;5.080;2022-07-22T01:21:30;102269.36;;;16.57;75.27
58967;BME280;44744;51.894;5.080;2022-07-22T01:22:31;102270.95;;;16.58;75.26
58967;BME280;44744;51.894;5.080;2022-07-22T01:23:31;102270.39;;;16.58;75.25
58967;BME280;44744;51.894;5.080;2022-07-22T01:24:31;102271.23;;;16.59;75.14
58967;BME280;44744;51.894;5.080;2022-07-22T01:25:32;102271.20;;;16.60;75.21
58967;BME280;44744;51.894;5.080;2022-07-22T01:26:32;102265.97;;;16.60;75.19
58967;BME280;44744;51.894;5.080;2022-07-22T01:27:33;102266.80;;;16.61;75.16
58967;BME280;44744;51.894;5.080;2022-07-22T01:28:33;102265.02;;;16.61;75.14
58967;BME280;44744;51.894;5.080;2022-07-22T01:29:33;102264.30;;;16.61;75.08
58967;BME280;44744;51.894;5.080;2022-07-22T01:30:34;102264.42;;;16.62;75.08
58967;BME280;44744;51.894;5.080;2022-07-22T01:31:34;102265.16;;;16.62;75.03
58967;BME280;44744;51.894;5.080;2022-07-22T01:32:34;102265.38;;;16.61;74.99
58967;BME280;44744;51.894;5.080;2022-07-22T01:33:35;102262.13;;;16.62;75.05
58967;BME280;44744;51.894;5.080;2022-07-22T01:34:35;102258.05;;;16.61;74.95
58967;BME280;44744;51.894;5.080;2022-07-22T01:35:36;102260.08;;;16.60;74.95
58967;BME280;44744;51.894;5.080;2022-07-22T01:36:36;102257.59;;;16.60;74.97
58967;BME280;44744;51.894;5.080;2022-07-22T01:37:36;102256.70;;;16.60;74.86
58967;BME280;44744;51.894;5.080;2022-07-22T01:38:37;102260.29;;;16.60;74.86
58967;BME280;44744;51.894;5.080;2022-07-22T01:39:38;102261.92;;;16.60;74.86
58967;BME280;44744;51.894;5.080;2022-07-22T01:40:39;102259.04;;;16.57;74.78
58967;BME280;44744;51.894;5.080;2022-07-22T01:41:40;102260.35;;;16.55;74.80
58967;BME280;44744;51.894;5.080;2022-07-22T01:42:40;102258.48;;;16.54;74.85
58967;BME280;44744;51.894;5.080;2022-07-22T01:43:41;102259.46;;;16.52;74.80
58967;BME280;44744;51.894;5.080;2022-07-22T01:44:41;102259.34;;;16.51;74.84
58967;BME280;44744;51.894;5.080;2022-07-22T01:45:41;102261.64;;;16.51;74.88
58967;BME280;44744;51.894;5.080;2022-07-22T01:46:42;102264.81;;;16.52;74.93
58967;BME280;44744;51.894;5.080;2022-07-22T01:47:42;102263.16;;;16.53;74.84
58967;BME280;44744;51.894;5.080;2022-07-22T01:48:43;102260.79;;;16.54;74.86
58967;BME280;44744;51.894;5.080;2022-07-22T01:49:43;102260.02;;;16.55;74.89
58967;BME280;44744;51.894;5.080;2022-07-22T01:50:44;102258.99;;;16.54;74.90
58967;BME280;44744;51.894;5.080;2022-07-22T01:51:44;102262.57;;;16.54;74.79
58967;BME280;44744;51.894;5.080;2022-07-22T01:52:45;102257.73;;;16.54;74.77
58967;BME280;44744;51.894;5.080;2022-07-22T01:53:45;102257.05;;;16.54;74.82
58967;BME280;44744;51.894;5.080;2022-07-22T01:54:45;102258.61;;;16.54;74.85
58967;BME280;44744;51.894;5.080;2022-07-22T01:55:46;102256.83;;;16.55;74.80
58967;BME280;44744;51.894;5.080;2022-07-22T01:56:46;102254.70;;;16.54;74.75
58967;BME280;44744;51.894;5.080;2022-07-22T01:57:47;102249.93;;;16.53;74.68
58967;BME280;44744;51.894;5.080;2022-07-22T01:58:47;102247.77;;;16.54;74.68
58967;BME280;44744;51.894;5.080;2022-07-22T01:59:47;102248.98;;;16.54;74.71
58967;BME280;44744;51.894;5.080;2022-07-22T02:00:48;102248.65;;;16.54;74.75
58967;BME280;44744;51.894;5.080;2022-07-22T02:01:48;102247.61;;;16.54;74.68
58967;BME280;44744;51.894;5.080;2022-07-22T02:02:49;102245.59;;;16.54;74.71
58967;BME280;44744;51.894;5.080;2022-07-22T02:03:49;102246.73;;;16.56;74.69
58967;BME280;44744;51.894;5.080;2022-07-22T02:04:49;102248.42;;;16.58;74.65
58967;BME280;44744;51.894;5.080;2022-07-22T02:05:49;102243.98;;;16.58;74.63
58967;BME280;44744;51.894;5.080;2022-07-22T02:06:50;102244.66;;;16.58;74.67
58967;BME280;44744;51.894;5.080;2022-07-22T02:07:50;102242.48;;;16.59;74.51
58967;BME280;44744;51.894;5.080;2022-07-22T02:08:54;102244.59;;;16.60;74.54
58967;BME280;44744;51.894;5.080;2022-07-22T02:09:54;102242.56;;;16.61;74.53
58967;BME280;44744;51.894;5.080;2022-07-22T02:10:55;102243.08;;;16.60;74.50
58967;BME280;44744;51.894;5.080;2022-07-22T02:11:55;102241.97;;;16.61;74.55
58967;BME280;44744;51.894;5.080;2022-07-22T02:12:57;102244.77;;;16.62;74.41
58967;BME280;44744;51.894;5.080;2022-07-22T02:13:57;102243.89;;;16.62;74.34
58967;BME280;44744;51.894;5.080;2022-07-22T02:14:58;102246.50;;;16.63;74.39
58967;BME280;44744;51.894;5.080;2022-07-22T02:15:58;102248.66;;;16.63;74.39
58967;BME280;44744;51.894;5.080;2022-07-22T02:16:59;102249.15;;;16.64;74.34
58967;BME280;44744;51.894;5.080;2022-07-22T02:17:59;102250.06;;;16.64;74.37
58967;BME280;44744;51.894;5.080;2022-07-22T02:18:59;102251.46;;;16.64;74.30
58967;BME280;44744;51.894;5.080;2022-07-22T02:20:00;102251.83;;;16.64;74.28
58967;BME280;44744;51.894;5.080;2022-07-22T02:21:00;102253.06;;;16.64;74.19
58967;BME280;44744;51.894;5.080;2022-07-22T02:22:00;102251.83;;;16.64;74.22
58967;BME280;44744;51.894;5.080;2022-07-22T02:23:01;102250.02;;;16.64;74.09
58967;BME280;44744;51.894;5.080;2022-07-22T02:24:01;102251.48;;;16.64;74.20
58967;BME280;44744;51.894;5.080;2022-07-22T02:25:01;102252.52;;;16.64;74.13
58967;BME280;44744;51.894;5.080;2022-07-22T02:26:02;102251.45;;;16.64;74.14
58967;BME280;44744;51.894;5.080;2022-07-22T02:27:03;102254.48;;;16.64;74.12
58967;BME280;44744;51.894;5.080;2022-07-22T02:28:03;102253.09;;;16.64;74.12
58967;BME280;44744;51.894;5.080;2022-07-22T02:29:07;102251.66;;;16.64;74.08
58967;BME280;44744;51.894;5.080;2022-07-22T02:30:08;102251.16;;;16.63;74.14
58967;BME280;44744;51.894;5.080;2022-07-22T02:31:08;102251.52;;;16.63;74.05
58967;BME280;44744;51.894;5.080;2022-07-22T02:32:09;102253.17;;;16.62;74.07
58967;BME280;44744;51.894;5.080;2022-07-22T02:33:12;102253.90;;;16.62;73.92
58967;BME280;44744;51.894;5.080;2022-07-22T02:34:12;102253.70;;;16.62;74.00
58967;BME280;44744;51.894;5.080;2022-07-22T02:35:13;102251.05;;;16.62;73.95
58967;BME280;44744;51.894;5.080;2022-07-22T02:36:13;102254.59;;;16.62;73.95
58967;BME280;44744;51.894;5.080;2022-07-22T02:37:14;102254.96;;;16.62;73.99
58967;BME280;44744;51.894;5.080;2022-07-22T02:38:15;102252.27;;;16.62;73.91
58967;BME280;44744;51.894;5.080;2022-07-22T02:39:15;102251.90;;;16.63;73.97
58967;BME280;44744;51.894;5.080;2022-07-22T02:40:16;102255.45;;;16.63;73.98
58967;BME280;44744;51.894;5.080;2022-07-22T02:41:16;102254.59;;;16.62;73.96
58967;BME280;44744;51.894;5.080;2022-07-22T02:42:19;102253.84;;;16.63;74.01
58967;BME280;44744;51.894;5.080;2022-07-22T02:43:19;102254.89;;;16.63;73.86
58967;BME280;44744;51.894;5.080;2022-07-22T02:44:19;102250.81;;;16.63;73.93
58967;BME280;44744;51.894;5.080;2022-07-22T02:45:20;102250.09;;;16.63;73.87
58967;BME280;44744;51.894;5.080;2022-07-22T02:46:23;102251.48;;;16.63;73.82
58967;BME280;44744;51.894;5.080;2022-07-22T02:47:24;102247.02;;;16.64;73.81
58967;BME280;44744;51.894;5.080;2022-07-22T02:48:24;102246.48;;;16.64;73.84
58967;BME280;44744;51.894;5.080;2022-07-22T02:49:28;102246.13;;;16.64;73.84
58967;BME280;44744;51.894;5.080;2022-07-22T02:50:28;102246.55;;;16.62;73.77
58967;BME280;44744;51.894;5.080;2022-07-22T02:51:28;102247.64;;;16.62;73.77
58967;BME280;44744;51.894;5.080;2022-07-22T02:52:32;102246.55;;;16.62;73.78
58967;BME280;44744;51.894;5.080;2022-07-22T02:53:32;102245.83;;;16.63;73.76
58967;BME280;44744;51.894;5.080;2022-07-22T02:54:32;102242.32;;;16.61;73.75
58967;BME280;44744;51.894;5.080;2022-07-22T02:55:32;102241.41;;;16.62;73.80
58967;BME280;44744;51.894;5.080;2022-07-22T02:56:33;102243.55;;;16.62;73.80
58967;BME280;44744;51.894;5.080;2022-07-22T02:57:33;102239.82;;;16.62;73.73
58967;BME280;44744;51.894;5.080;2022-07-22T02:58:34;102240.04;;;16.61;73.74
58967;BME280;44744;51.894;5.080;2022-07-22T02:59:34;102239.83;;;16.61;73.70
58967;BME280;44744;51.894;5.080;2022-07-22T03:00:35;102237.20;;;16.61;73.71
58967;BME280;44744;51.894;5.080;2022-07-22T03:01:36;102237.16;;;16.61;73.75
58967;BME280;44744;51.894;5.080;2022-07-22T03:02:37;102239.39;;;16.60;73.66
58967;BME280;44744;51.894;5.080;2022-07-22T03:03:38;102239.56;;;16.60;73.72
58967;BME280;44744;51.894;5.080;2022-07-22T03:04:38;102239.42;;;16.59;73.73
58967;BME280;44744;51.894;5.080;2022-07-22T03:05:39;102238.13;;;16.60;73.67
58967;BME280;44744;51.894;5.080;2022-07-22T03:06:39;102238.65;;;16.60;73.71
58967;BME280;44744;51.894;5.080;2022-07-22T03:07:39;102239.61;;;16.59;73.73
58967;BME280;44744;51.894;5.080;2022-07-22T03:08:40;102240.67;;;16.59;73.76
58967;BME280;44744;51.894;5.080;2022-07-22T03:09:40;102237.64;;;16.59;73.77
58967;BME280;44744;51.894;5.080;2022-07-22T03:10:41;102237.68;;;16.59;73.69
58967;BME280;44744;51.894;5.080;2022-07-22T03:11:41;102241.04;;;16.59;73.75
58967;BME280;44744;51.894;5.080;2022-07-22T03:12:41;102239.06;;;16.59;73.75
58967;BME280;44744;51.894;5.080;2022-07-22T03:13:42;102238.71;;;16.59;73.74
58967;BME280;44744;51.894;5.080;2022-07-22T03:14:42;102237.51;;;16.58;73.70
58967;BME280;44744;51.894;5.080;2022-07-22T03:15:42;102237.35;;;16.58;73.55
58967;BME280;44744;51.894;5.080;2022-07-22T03:16:42;102238.81;;;16.57;73.57
58967;BME280;44744;51.894;5.080;2022-07-22T03:17:43;102235.70;;;16.56;73.70
58967;BME280;44744;51.894;5.080;2022-07-22T03:18:43;102235.34;;;16.55;73.67
58967;BME280;44744;51.894;5.080;2022-07-22T03:19:43;102235.38;;;16.55;73.63
58967;BME280;44744;51.894;5.080;2022-07-22T03:20:44;102231.77;;;16.55;73.68
58967;BME280;44744;51.894;5.080;2022-07-22T03:21:44;102233.52;;;16.56;73.74
58967;BME280;44744;51.894;5.080;2022-07-22T03:22:44;102231.91;;;16.56;73.61
58967;BME280;44744;51.894;5.080;2022-07-22T03:23:44;102232.12;;;16.56;73.61
58967;BME280;44744;51.894;5.080;2022-07-22T03:24:45;102230.90;;;16.55;73.60
58967;BME280;44744;51.894;5.080;2022-07-22T03:25:45;102236.77;;;16.56;73.59
58967;BME280;44744;51.894;5.080;2022-07-22T03:26:45;102235.36;;;16.55;73.66
58967;BME280;44744;51.894;5.080;2022-07-22T03:27:45;102234.72;;;16.54;73.58
58967;BME280;44744;51.894;5.080;2022-07-22T03:28:46;102236.36;;;16.53;73.52
58967;BME280;44744;51.894;5.080;2022-07-22T03:29:47;102237.60;;;16.54;73.54
58967;BME280;44744;51.894;5.080;2022-07-22T03:30:47;102236.14;;;16.54;73.64
58967;BME280;44744;51.894;5.080;2022-07-22T03:31:47;102232.92;;;16.54;73.61
58967;BME280;44744;51.894;5.080;2022-07-22T03:32:48;102235.91;;;16.55;73.65
58967;BME280;44744;51.894;5.080;2022-07-22T03:33:48;102235.91;;;16.55;73.55
58967;BME280;44744;51.894;5.080;2022-07-22T03:34:49;102236.23;;;16.55;73.64
58967;BME280;44744;51.894;5.080;2022-07-22T03:35:52;102236.81;;;16.55;73.61
58967;BME280;44744;51.894;5.080;2022-07-22T03:36:52;102240.20;;;16.55;73.50
58967;BME280;44744;51.894;5.080;2022-07-22T03:37:53;102240.06;;;16.54;73.59
58967;BME280;44744;51.894;5.080;2022-07-22T03:38:53;102239.96;;;16.56;73.60
58967;BME280;44744;51.894;5.080;2022-07-22T03:39:53;102239.96;;;16.56;73.55
58967;BME280;44744;51.894;5.080;2022-07-22T03:40:54;102239.05;;;16.56;73.53
58967;BME280;44744;51.894;5.080;2022-07-22T03:41:54;102245.13;;;16.56;73.57
58967;BME280;44744;51.894;5.080;2022-07-22T03:42:54;102240.86;;;16.56;73.56
58967;BME280;44744;51.894;5.080;2022-07-22T03:43:55;102237.69;;;16.55;73.46
58967;BME280;44744;51.894;5.080;2022-07-22T03:44:55;102237.37;;;16.54;73.50
58967;BME280;44744;51.894;5.080;2022-07-22T03:45:55;102234.71;;;16.54;73.56
58967;BME280;44744;51.894;5.080;2022-07-22T03:46:56;102232.83;;;16.53;73.53
58967;BME280;44744;51.894;5.080;2022-07-22T03:47:56;102233.98;;;16.54;73.53
58967;BME280;44744;51.894;5.080;2022-07-22T03:48:56;102233.16;;;16.53;73.53
58967;BME280;44744;51.894;5.080;2022-07-22T03:49:57;102231.89;;;16.53;73.55
58967;BME280;44744;51.894;5.080;2022-07-22T03:51:00;102230.83;;;16.53;73.56
58967;BME280;44744;51.894;5.080;2022-07-22T03:52:00;102232.78;;;16.53;73.62
58967;BME280;44744;51.894;5.080;2022-07-22T03:53:01;102235.61;;;16.54;73.57
58967;BME280;44744;51.894;5.080;2022-07-22T03:54:01;102237.39;;;16.54;73.58
58967;BME280;44744;51.894;5.080;2022-07-22T03:55:14;102239.97;;;16.56;73.66
58967;BME280;44744;51.894;5.080;2022-07-22T03:56:14;102240.14;;;16.56;73.67
58967;BME280;44744;51.894;5.080;2022-07-22T03:57:15;102238.27;;;16.54;73.68
58967;BME280;44744;51.894;5.080;2022-07-22T03:58:16;102237.31;;;16.55;73.68
58967;BME280;44744;51.894;5.080;2022-07-22T03:59:17;102240.67;;;16.56;73.60
58967;BME280;44744;51.894;5.080;2022-07-22T04:00:17;102239.77;;;16.53;73.68
58967;BME280;44744;51.894;5.080;2022-07-22T04:01:17;102240.51;;;16.53;73.73
58967;BME280;44744;51.894;5.080;2022-07-22T04:02:21;102239.42;;;16.53;73.72
58967;BME280;44744;51.894;5.080;2022-07-22T04:03:24;102241.39;;;16.53;73.67
58967;BME280;44744;51.894;5.080;2022-07-22T04:04:24;102239.13;;;16.52;73.72
58967;BME280;44744;51.894;5.080;2022-07-22T04:05:24;102238.04;;;16.52;73.67
58967;BME280;44744;51.894;5.080;2022-07-22T04:06:25;102240.70;;;16.52;73.76
58967;BME280;44744;51.894;5.080;2022-07-22T04:07:25;102241.77;;;16.53;73.82
58967;BME280;44744;51.894;5.080;2022-07-22T04:08:25;102242.20;;;16.54;73.82
58967;BME280;44744;51.894;5.080;2022-07-22T04:09:26;102244.44;;;16.56;73.89
58967;BME280;44744;51.894;5.080;2022-07-22T04:10:26;102245.30;;;16.56;73.88
58967;BME280;44744;51.894;5.080;2022-07-22T04:11:26;102243.02;;;16.56;73.89
58967;BME280;44744;51.894;5.080;2022-07-22T04:12:27;102246.02;;;16.56;73.77
58967;BME280;44744;51.894;5.080;2022-07-22T04:13:27;102245.66;;;16.56;73.76
58967;BME280;44744;51.894;5.080;2022-07-22T04:14:27;102250.98;;;16.57;73.79
58967;BME280;44744;51.894;5.080;2022-07-22T04:15:28;102249.25;;;16.56;73.87
58967;BME280;44744;51.894;5.080;2022-07-22T04:16:28;102250.34;;;16.56;73.83
58967;BME280;44744;51.894;5.080;2022-07-22T04:17:28;102250.20;;;16.55;73.77
58967;BME280;44744;51.894;5.080;2022-07-22T04:18:32;102253.00;;;16.56;73.77
58967;BME280;44744;51.894;5.080;2022-07-22T04:19:32;102251.08;;;16.55;73.77
58967;BME280;44744;51.894;5.080;2022-07-22T04:20:33;102251.08;;;16.55;73.79
58967;BME280;44744;51.894;5.080;2022-07-22T04:21:33;102249.13;;;16.55;73.79
58967;BME280;44744;51.894;5.080;2022-07-22T04:22:33;102249.29;;;16.55;73.80
58967;BME280;44744;51.894;5.080;2022-07-22T04:23:34;102250.89;;;16.55;73.74
58967;BME280;44744;51.894;5.080;2022-07-22T04:24:34;102246.81;;;16.54;73.73
58967;BME280;44744;51.894;5.080;2022-07-22T04:25:34;102249.80;;;16.56;73.71
58967;BME280;44744;51.894;5.080;2022-07-22T04:26:58;102247.11;;;16.56;73.72
58967;BME280;44744;51.894;5.080;2022-07-22T04:27:58;102247.34;;;16.55;73.74
58967;BME280;44744;51.894;5.080;2022-07-22T04:28:59;102246.45;;;16.55;73.73
58967;BME280;44744;51.894;5.080;2022-07-22T04:29:59;102244.71;;;16.54;73.70
58967;BME280;44744;51.894;5.080;2022-07-22T04:30:59;102244.50;;;16.54;73.64
58967;BME280;44744;51.894;5.080;2022-07-22T04:32:00;102240.02;;;16.55;73.73
58967;BME280;44744;51.894;5.080;2022-07-22T04:33:00;102238.45;;;16.54;73.79
58967;BME280;44744;51.894;5.080;2022-07-22T04:34:00;102235.44;;;16.53;73.77
58967;BME280;44744;51.894;5.080;2022-07-22T04:35:00;102233.95;;;16.55;73.80
58967;BME280;44744;51.894;5.080;2022-07-22T04:36:01;102231.29;;;16.55;73.73
58967;BME280;44744;51.894;5.080;2022-07-22T04:37:01;102230.36;;;16.55;73.78
58967;BME280;44744;51.894;5.080;2022-07-22T04:38:02;102234.21;;;16.57;73.74
58967;BME280;44744;51.894;5.080;2022-07-22T04:39:02;102231.89;;;16.57;73.78
58967;BME280;44744;51.894;5.080;2022-07-22T04:40:03;102230.80;;;16.57;73.78
58967;BME280;44744;51.894;5.080;2022-07-22T04:41:04;102225.08;;;16.57;73.72
58967;BME280;44744;51.894;5.080;2022-07-22T04:42:05;102227.04;;;16.58;73.75
58967;BME280;44744;51.894;5.080;2022-07-22T04:43:05;102225.38;;;16.58;73.75
58967;BME280;44744;51.894;5.080;2022-07-22T04:44:08;102223.77;;;16.58;73.80
58967;BME280;44744;51.894;5.080;2022-07-22T04:45:09;102225.11;;;16.60;73.79
58967;BME280;44744;51.894;5.080;2022-07-22T04:46:10;102225.13;;;16.59;73.74
58967;BME280;44744;51.894;5.080;2022-07-22T04:47:14;102224.77;;;16.59;73.74
58967;BME280;44744;51.894;5.080;2022-07-22T04:48:14;102226.25;;;16.59;73.76
58967;BME280;44744;51.894;5.080;2022-07-22T04:49:14;102220.47;;;16.57;73.66
58967;BME280;44744;51.894;5.080;2022-07-22T04:50:15;102221.44;;;16.55;73.69
58967;BME280;44744;51.894;5.080;2022-07-22T04:51:15;102222.44;;;16.53;73.66
58967;BME280;44744;51.894;5.080;2022-07-22T04:52:15;102223.02;;;16.53;73.79
58967;BME280;44744;51.894;5.080;2022-07-22T04:53:19;102225.33;;;16.53;73.66
58967;BME280;44744;51.894;5.080;2022-07-22T04:54:19;102222.16;;;16.52;73.71
58967;BME280;44744;51.894;5.080;2022-07-22T04:55:19;102222.17;;;16.51;73.72
58967;BME280;44744;51.894;5.080;2022-07-22T04:56:20;102220.55;;;16.52;73.73
58967;BME280;44744;51.894;5.080;2022-07-22T04:57:22;102219.16;;;16.51;73.77
58967;BME280;44744;51.894;5.080;2022-07-22T04:58:23;102222.57;;;16.51;73.85
58967;BME280;44744;51.894;5.080;2022-07-22T04:59:23;102225.43;;;16.51;73.77
58967;BME280;44744;51.894;5.080;2022-07-22T05:00:23;102223.79;;;16.51;73.85
58967;BME280;44744;51.894;5.080;2022-07-22T05:01:24;102221.84;;;16.51;73.86
58967;BME280;44744;51.894;5.080;2022-07-22T05:02:24;102224.79;;;16.53;73.84
58967;BME280;44744;51.894;5.080;2022-07-22T05:03:24;102226.36;;;16.53;73.97
58967;BME280;44744;51.894;5.080;2022-07-22T05:04:25;102223.11;;;16.54;73.86
58967;BME280;44744;51.894;5.080;2022-07-22T05:05:25;102222.63;;;16.53;73.83
58967;BME280;44744;51.894;5.080;2022-07-22T05:06:25;102226.33;;;16.54;73.79
58967;BME280;44744;51.894;5.080;2022-07-22T05:07:26;102222.56;;;16.54;73.95
58967;BME280;44744;51.894;5.080;2022-07-22T05:08:26;102225.20;;;16.55;73.90
58967;BME280;44744;51.894;5.080;2022-07-22T05:09:27;102224.70;;;16.54;73.98
58967;BME280;44744;51.894;5.080;2022-07-22T05:10:27;102224.91;;;16.54;73.89
58967;BME280;44744;51.894;5.080;2022-07-22T05:11:27;102225.48;;;16.53;73.99
58967;BME280;44744;51.894;5.080;2022-07-22T05:12:27;102226.04;;;16.53;73.97
58967;BME280;44744;51.894;5.080;2022-07-22T05:13:28;102226.84;;;16.54;73.97
58967;BME280;44744;51.894;5.080;2022-07-22T05:14:28;102225.58;;;16.54;74.00
58967;BME280;44744;51.894;5.080;2022-07-22T05:15:28;102226.80;;;16.55;74.01
58967;BME280;44744;51.894;5.080;2022-07-22T05:16:32;102230.33;;;16.56;74.08
58967;BME280;44744;51.894;5.080;2022-07-22T05:17:35;102227.06;;;16.57;73.99